createdAt,value
2023-01-21T00:00:58.792Z,-3.22
2023-01-21T00:03:25.543Z,-3.20
2023-01-21T00:05:52.330Z,-3.16
2023-01-21T00:08:18.977Z,-3.12
2023-01-21T00:10:45.699Z,-3.17
2023-01-21T00:13:12.336Z,-3.19
2023-01-21T00:15:39.159Z,-3.24
2023-01-21T00:18:07.878Z,-3.17
2023-01-21T00:20:34.655Z,-3.15
2023-01-21T00:23:01.509Z,-3.09
2023-01-21T00:25:28.495Z,-3.13
2023-01-21T00:27:55.193Z,-3.06
2023-01-21T00:30:22.497Z,-3.03
2023-01-21T00:32:49.094Z,-2.94
2023-01-21T00:35:16.106Z,-2.84
2023-01-21T00:37:42.879Z,-2.82
2023-01-21T00:40:10.041Z,-2.75
2023-01-21T00:42:36.747Z,-2.70
2023-01-21T00:45:03.704Z,-2.64
2023-01-21T00:47:30.384Z,-2.60
2023-01-21T00:49:57.097Z,-2.60
2023-01-21T00:52:23.841Z,-2.54
2023-01-21T00:54:50.491Z,-2.51
2023-01-21T00:57:17.196Z,-2.46
2023-01-21T00:59:44.084Z,-2.42
2023-01-21T01:02:10.953Z,-2.38
2023-01-21T01:04:37.657Z,-2.37
2023-01-21T01:07:04.679Z,-2.34
2023-01-21T01:09:31.780Z,-2.30
2023-01-21T01:11:58.795Z,-2.27
2023-01-21T01:14:25.647Z,-2.29
2023-01-21T01:16:52.464Z,-2.31
2023-01-21T01:19:19.087Z,-2.31
2023-01-21T01:21:45.846Z,-2.30
2023-01-21T01:24:12.391Z,-2.24
2023-01-21T01:26:41.843Z,-2.26
2023-01-21T01:29:12.560Z,-2.22
2023-01-21T01:31:39.331Z,-2.22
2023-01-21T01:34:06.080Z,-2.22
2023-01-21T01:36:32.680Z,-2.19
2023-01-21T01:38:59.270Z,-2.17
2023-01-21T01:41:28.766Z,-2.14
2023-01-21T01:43:59.826Z,-2.15
2023-01-21T01:46:29.238Z,-2.13
2023-01-21T01:49:18.995Z,-2.10
2023-01-21T01:52:03.178Z,-2.16
2023-01-21T01:54:34.269Z,-2.15
2023-01-21T01:57:05.281Z,-2.20
2023-01-21T01:59:33.271Z,-2.23
2023-01-21T02:02:06.714Z,-2.27
2023-01-21T02:04:40.389Z,-2.21
2023-01-21T02:07:07.647Z,-2.17
2023-01-21T02:09:34.543Z,-2.23
2023-01-21T02:12:03.627Z,-2.20
2023-01-21T02:14:31.750Z,-2.25
2023-01-21T02:17:17.429Z,-2.27
2023-01-21T02:20:22.005Z,-2.30
2023-01-21T02:23:10.252Z,-2.29
2023-01-21T02:25:42.597Z,-2.33
2023-01-21T02:28:43.609Z,-2.32
2023-01-21T02:31:28.565Z,-2.34
2023-01-21T02:34:16.991Z,-2.35
2023-01-21T02:37:02.885Z,-2.36
2023-01-21T02:40:04.837Z,-2.32
2023-01-21T02:42:42.030Z,-2.31
2023-01-21T02:45:29.945Z,-2.30
2023-01-21T02:48:20.200Z,-2.27
2023-01-21T02:50:53.147Z,-2.26
2023-01-21T02:53:31.775Z,-2.23
2023-01-21T02:56:06.369Z,-2.23
2023-01-21T02:58:36.509Z,-2.23
2023-01-21T03:01:27.890Z,-2.23
2023-01-21T03:04:27.013Z,-2.23
2023-01-21T03:06:56.519Z,-2.20
2023-01-21T03:09:29.664Z,-2.22
2023-01-21T03:12:23.997Z,-2.20
2023-01-21T03:15:20.615Z,-2.17
2023-01-21T03:18:01.152Z,-2.10
2023-01-21T03:20:33.021Z,-2.09
2023-01-21T03:23:06.381Z,-2.11
2023-01-21T03:25:35.219Z,-2.10
2023-01-21T03:28:08.306Z,-2.09
2023-01-21T03:30:37.516Z,-2.09
2023-01-21T03:33:05.802Z,-2.24
2023-01-21T03:35:37.744Z,-2.26
2023-01-21T03:38:12.086Z,-2.25
2023-01-21T03:40:48.165Z,-2.32
2023-01-21T03:43:14.937Z,-2.31
2023-01-21T03:45:54.777Z,-2.22
2023-01-21T03:48:32.052Z,-2.21
2023-01-21T03:51:10.285Z,-2.19
2023-01-21T03:53:37.008Z,-2.21
2023-01-21T03:56:04.599Z,-2.18
2023-01-21T03:58:31.341Z,-2.15
2023-01-21T04:00:58.033Z,-2.19
2023-01-21T04:03:24.698Z,-2.24
2023-01-21T04:05:51.645Z,-2.15
2023-01-21T04:08:18.181Z,-2.15
2023-01-21T04:10:44.862Z,-2.20
2023-01-21T04:13:11.474Z,-2.14
2023-01-21T04:15:38.017Z,-2.15
2023-01-21T04:18:04.622Z,-2.13
2023-01-21T04:20:31.570Z,-2.18
2023-01-21T04:22:58.274Z,-2.20
2023-01-21T04:25:25.000Z,-2.12
2023-01-21T04:27:51.574Z,-2.08
2023-01-21T04:30:18.495Z,-2.20
2023-01-21T04:32:46.572Z,-2.24
2023-01-21T04:35:13.306Z,-2.21
2023-01-21T04:37:39.925Z,-2.21
2023-01-21T04:40:07.114Z,-2.17
2023-01-21T04:42:33.757Z,-2.11
2023-01-21T04:45:00.359Z,-2.07
2023-01-21T04:47:27.020Z,-2.13
2023-01-21T04:49:53.709Z,-2.17
2023-01-21T04:52:20.357Z,-2.06
2023-01-21T04:54:47.095Z,-2.10
2023-01-21T04:57:13.834Z,-2.16
2023-01-21T04:59:40.330Z,-2.14
2023-01-21T05:02:06.907Z,-2.13
2023-01-21T05:04:33.584Z,-2.14
2023-01-21T05:07:00.327Z,-2.15
2023-01-21T05:09:27.365Z,-2.10
2023-01-21T05:11:53.955Z,-2.02
2023-01-21T05:14:20.636Z,-2.13
2023-01-21T05:16:47.367Z,-2.16
2023-01-21T05:19:14.023Z,-2.10
2023-01-21T05:21:40.758Z,-1.99
2023-01-21T05:24:07.967Z,-2.15
2023-01-21T05:26:34.606Z,-2.18
2023-01-21T05:29:01.226Z,-2.09
2023-01-21T05:31:27.837Z,-2.00
2023-01-21T05:33:56.883Z,-2.02
2023-01-21T05:36:23.999Z,-2.00
2023-01-21T05:38:50.504Z,-2.08
2023-01-21T05:41:18.006Z,-2.06
2023-01-21T05:43:44.796Z,-2.07
2023-01-21T05:46:11.557Z,-2.05
2023-01-21T05:48:38.166Z,-2.06
2023-01-21T05:51:05.472Z,-2.08
2023-01-21T05:53:32.138Z,-2.05
2023-01-21T05:55:59.063Z,-2.09
2023-01-21T05:58:26.062Z,-2.11
2023-01-21T06:00:52.883Z,-2.12
2023-01-21T06:03:19.910Z,-2.08
2023-01-21T06:05:49.253Z,-2.10
2023-01-21T06:08:16.309Z,-2.08
2023-01-21T06:10:42.908Z,-2.14
2023-01-21T06:13:12.861Z,-2.21
2023-01-21T06:15:39.756Z,-2.12
2023-01-21T06:18:06.480Z,-2.13
2023-01-21T06:20:33.284Z,-2.08
2023-01-21T06:23:02.161Z,-2.12
2023-01-21T06:25:28.813Z,-2.10
2023-01-21T06:27:56.172Z,-2.16
2023-01-21T06:30:24.547Z,-2.08
2023-01-21T06:32:51.503Z,-2.06
2023-01-21T06:35:18.877Z,-2.07
2023-01-21T06:37:46.177Z,-2.06
2023-01-21T06:40:13.967Z,-2.04
2023-01-21T06:42:40.677Z,-2.02
2023-01-21T06:45:07.919Z,-2.10
2023-01-21T06:47:35.381Z,-2.09
2023-01-21T06:50:01.973Z,-2.14
2023-01-21T06:52:28.605Z,-2.31
2023-01-21T06:54:55.233Z,-2.23
2023-01-21T06:57:22.097Z,-2.26
2023-01-21T06:59:48.730Z,-2.18
2023-01-21T07:02:15.380Z,-2.06
2023-01-21T07:04:42.137Z,-1.97
2023-01-21T07:07:08.752Z,-2.09
2023-01-21T07:09:35.261Z,-2.05
2023-01-21T07:12:01.962Z,-2.17
2023-01-21T07:14:28.629Z,-2.21
2023-01-21T07:16:55.323Z,-2.28
2023-01-21T07:19:21.908Z,-2.13
2023-01-21T07:21:48.615Z,-2.11
2023-01-21T07:24:15.081Z,-2.10
2023-01-21T07:26:41.938Z,-2.24
2023-01-21T07:29:09.337Z,-2.29
2023-01-21T07:31:36.236Z,-2.16
2023-01-21T07:34:03.924Z,-2.11
2023-01-21T07:36:30.508Z,-2.28
2023-01-21T07:38:57.503Z,-2.40
2023-01-21T07:41:24.431Z,-2.34
2023-01-21T07:43:52.146Z,-2.36
2023-01-21T07:46:20.130Z,-2.43
2023-01-21T07:48:51.880Z,-2.44
2023-01-21T07:51:22.301Z,-2.44
2023-01-21T07:53:48.979Z,-2.47
2023-01-21T07:56:16.476Z,-2.52
2023-01-21T07:58:43.197Z,-2.62
2023-01-21T08:01:10.598Z,-2.57
2023-01-21T08:03:38.099Z,-2.50
2023-01-21T08:06:05.723Z,-2.50
2023-01-21T08:08:33.099Z,-2.51
2023-01-21T08:10:59.987Z,-2.46
2023-01-21T08:13:26.733Z,-2.53
2023-01-21T08:15:55.334Z,-2.51
2023-01-21T08:18:23.979Z,-2.52
2023-01-21T08:20:55.944Z,-2.61
2023-01-21T08:23:22.902Z,-2.58
2023-01-21T08:25:49.709Z,-2.58
2023-01-21T08:28:16.520Z,-2.48
2023-01-21T08:30:43.166Z,-2.57
2023-01-21T08:33:10.022Z,-2.49
2023-01-21T08:35:36.601Z,-2.49
2023-01-21T08:38:03.262Z,-2.38
2023-01-21T08:40:29.830Z,-2.36
2023-01-21T08:43:01.489Z,-2.21
2023-01-21T08:45:28.917Z,-2.36
2023-01-21T08:47:56.299Z,-2.42
2023-01-21T08:50:23.867Z,-2.42
2023-01-21T08:52:55.366Z,-2.34
2023-01-21T08:55:26.795Z,-2.27
2023-01-21T08:57:56.631Z,-2.32
2023-01-21T09:00:24.683Z,-2.39
2023-01-21T09:02:52.109Z,-2.28
2023-01-21T09:05:18.996Z,-2.20
2023-01-21T09:07:46.399Z,-2.19
2023-01-21T09:10:13.396Z,-2.27
2023-01-21T09:12:40.938Z,-2.15
2023-01-21T09:15:08.081Z,-2.07
2023-01-21T09:17:34.652Z,-2.11
2023-01-21T09:20:01.341Z,-2.05
2023-01-21T09:22:28.047Z,-2.14
2023-01-21T09:24:54.874Z,-2.06
2023-01-21T09:27:27.296Z,-2.00
2023-01-21T09:29:55.134Z,-2.02
2023-01-21T09:32:21.949Z,-2.00
2023-01-21T09:34:48.670Z,-2.13
2023-01-21T09:37:15.368Z,-2.07
2023-01-21T09:39:42.282Z,-2.03
2023-01-21T09:42:17.907Z,-2.07
2023-01-21T09:44:49.400Z,-2.08
2023-01-21T09:47:33.937Z,-1.93
2023-01-21T09:50:06.252Z,-2.01
2023-01-21T09:52:45.118Z,-2.03
2023-01-21T09:55:41.194Z,-1.95
2023-01-21T09:58:19.559Z,-1.85
2023-01-21T10:00:56.762Z,-1.86
2023-01-21T10:03:42.938Z,-1.85
2023-01-21T10:06:27.314Z,-1.77
2023-01-21T10:09:07.402Z,-1.74
2023-01-21T10:11:39.470Z,-1.62
2023-01-21T10:14:31.250Z,-1.61
2023-01-21T10:17:00.700Z,-1.65
2023-01-21T10:19:39.290Z,-1.53
2023-01-21T10:22:12.749Z,-1.54
2023-01-21T10:24:46.843Z,-1.69
2023-01-21T10:27:17.653Z,-1.74
2023-01-21T10:29:44.918Z,-1.57
2023-01-21T10:32:18.633Z,-1.55
2023-01-21T10:34:52.581Z,-1.51
2023-01-21T10:37:43.718Z,-1.46
2023-01-21T10:40:45.524Z,-1.54
2023-01-21T10:43:31.131Z,-1.49
2023-01-21T10:46:16.618Z,-1.51
2023-01-21T10:48:48.702Z,-1.57
2023-01-21T10:51:29.671Z,-1.45
2023-01-21T10:54:03.255Z,-1.50
2023-01-21T10:56:48.862Z,-1.51
2023-01-21T10:59:21.379Z,-1.53
2023-01-21T11:01:52.284Z,-1.52
2023-01-21T11:04:23.833Z,-1.51
2023-01-21T11:07:00.429Z,-1.35
2023-01-21T11:09:30.828Z,-1.39
2023-01-21T11:11:57.629Z,-1.43
2023-01-21T11:14:28.032Z,-1.22
2023-01-21T11:16:55.969Z,-1.25
2023-01-21T11:19:24.233Z,-1.13
2023-01-21T11:22:05.613Z,-1.16
2023-01-21T11:24:46.574Z,-1.27
2023-01-21T11:27:38.416Z,-1.26
2023-01-21T11:30:25.949Z,-1.13
2023-01-21T11:32:53.931Z,-1.23
2023-01-21T11:35:23.343Z,-1.07
2023-01-21T11:37:50.066Z,-1.11
2023-01-21T11:40:25.781Z,-1.13
2023-01-21T11:42:57.125Z,-1.09
2023-01-21T11:45:32.676Z,-1.02
2023-01-21T11:48:01.197Z,-0.97
2023-01-21T11:50:38.225Z,-0.88
2023-01-21T11:53:14.028Z,-1.02
2023-01-21T11:55:42.320Z,-1.06
2023-01-21T11:58:32.998Z,-0.98
2023-01-21T12:01:03.301Z,-1.03
2023-01-21T12:03:42.743Z,-1.05
2023-01-21T12:06:17.128Z,-1.03
2023-01-21T12:08:48.277Z,-1.06
2023-01-21T12:11:20.198Z,-0.87
2023-01-21T12:14:08.349Z,-0.73
2023-01-21T12:16:46.294Z,-0.71
2023-01-21T12:19:36.300Z,-0.79
2023-01-21T12:22:34.446Z,-0.85
2023-01-21T12:25:38.492Z,-0.70
2023-01-21T12:28:37.930Z,-0.55
2023-01-21T12:31:23.906Z,-0.60
2023-01-21T12:34:11.853Z,-0.52
2023-01-21T12:36:55.830Z,-0.58
2023-01-21T12:39:32.308Z,-0.54
2023-01-21T12:42:08.262Z,-0.57
2023-01-21T12:44:44.111Z,-0.66
2023-01-21T12:47:27.224Z,-0.68
2023-01-21T12:50:14.772Z,-0.60
2023-01-21T12:53:05.626Z,-0.52
2023-01-21T12:55:39.319Z,-0.59
2023-01-21T12:58:13.271Z,-0.54
2023-01-21T13:00:46.006Z,-0.57
2023-01-21T13:03:28.100Z,-0.47
2023-01-21T13:06:09.513Z,-0.43
2023-01-21T13:08:55.237Z,-0.46
2023-01-21T13:11:27.754Z,-0.48
2023-01-21T13:14:10.148Z,-0.47
2023-01-21T13:16:41.310Z,-0.53
2023-01-21T13:19:13.049Z,-0.60
2023-01-21T13:21:48.833Z,-0.45
2023-01-21T13:24:55.489Z,-0.44
2023-01-21T13:27:36.025Z,-0.42
2023-01-21T13:30:29.475Z,-0.40
2023-01-21T13:33:17.478Z,-0.44
2023-01-21T13:36:13.371Z,-0.43
2023-01-21T13:38:49.991Z,-0.37
2023-01-21T13:41:30.859Z,-0.45
2023-01-21T13:44:29.439Z,-0.36
2023-01-21T13:47:30.229Z,-0.39
2023-01-21T13:50:08.770Z,-0.32
2023-01-21T13:52:57.221Z,-0.38
2023-01-21T13:55:54.591Z,-0.42
2023-01-21T13:58:44.455Z,-0.35
2023-01-21T14:01:19.107Z,-0.38
2023-01-21T14:03:58.504Z,-0.36
2023-01-21T14:06:35.579Z,-0.36
2023-01-21T14:09:10.047Z,-0.43
2023-01-21T14:12:26.250Z,-0.44
2023-01-21T14:15:07.527Z,-0.43
2023-01-21T14:17:49.910Z,-0.41
2023-01-21T14:20:37.684Z,-0.23
2023-01-21T14:23:13.304Z,-0.35
2023-01-21T14:25:57.901Z,-0.29
2023-01-21T14:28:33.565Z,-0.26
2023-01-21T14:31:09.487Z,-0.24
2023-01-21T14:33:47.112Z,-0.29
2023-01-21T14:36:30.099Z,-0.17
2023-01-21T14:39:36.323Z,-0.14
2023-01-21T14:42:11.919Z,-0.19
2023-01-21T14:44:44.299Z,-0.17
2023-01-21T14:47:17.119Z,-0.28
2023-01-21T14:49:52.809Z,-0.20
2023-01-21T14:52:27.829Z,-0.22
2023-01-21T14:54:54.585Z,-0.13
2023-01-21T14:57:38.315Z,-0.24
2023-01-21T15:00:31.731Z,-0.24
2023-01-21T15:03:13.289Z,-0.22
2023-01-21T15:05:43.257Z,-0.17
2023-01-21T15:08:24.027Z,-0.18
2023-01-21T15:11:04.399Z,-0.18
2023-01-21T15:13:37.901Z,-0.13
2023-01-21T15:16:37.093Z,-0.15
2023-01-21T15:19:09.994Z,-0.08
2023-01-21T15:21:45.310Z,-0.14
2023-01-21T15:24:30.768Z,-0.13
2023-01-21T15:27:12.929Z,-0.10
2023-01-21T15:29:43.442Z,-0.05
2023-01-21T15:32:30.765Z,-0.13
2023-01-21T15:35:22.176Z,-0.17
2023-01-21T15:37:52.468Z,-0.23
2023-01-21T15:40:25.047Z,-0.28
2023-01-21T15:42:54.686Z,-0.26
2023-01-21T15:45:33.035Z,-0.21
2023-01-21T15:48:36.416Z,-0.24
2023-01-21T15:51:23.063Z,-0.21
2023-01-21T15:54:11.753Z,-0.20
2023-01-21T15:56:57.513Z,-0.19
2023-01-21T15:59:51.761Z,-0.20
2023-01-21T16:02:39.533Z,-0.14
2023-01-21T16:05:16.333Z,-0.19
2023-01-21T16:08:04.715Z,-0.16
2023-01-21T16:10:43.118Z,-0.10
2023-01-21T16:13:23.627Z,-0.10
2023-01-21T16:16:12.800Z,-0.08
2023-01-21T16:19:00.802Z,-0.02
2023-01-21T16:21:37.484Z,-0.06
2023-01-21T16:24:10.093Z,-0.03
2023-01-21T16:26:36.743Z,-0.06
2023-01-21T16:29:11.334Z,0.04
2023-01-21T16:31:48.165Z,0.05
2023-01-21T16:34:15.618Z,0.11
2023-01-21T16:36:42.247Z,0.18
2023-01-21T16:39:11.737Z,0.20
2023-01-21T16:41:39.821Z,0.22
2023-01-21T16:44:06.643Z,0.20
2023-01-21T16:46:37.680Z,0.23
2023-01-21T16:49:12.255Z,0.16
2023-01-21T16:51:42.079Z,0.15
2023-01-21T16:54:18.194Z,0.20
2023-01-21T16:56:50.674Z,0.17
2023-01-21T16:59:38.472Z,0.20
2023-01-21T17:02:15.977Z,0.20
2023-01-21T17:04:42.716Z,0.18
2023-01-21T17:07:26.686Z,0.17
2023-01-21T17:10:17.692Z,0.15
2023-01-21T17:12:55.181Z,0.14
2023-01-21T17:15:38.686Z,0.18
2023-01-21T17:18:09.473Z,0.14
2023-01-21T17:20:42.664Z,0.19
2023-01-21T17:23:18.779Z,0.24
2023-01-21T17:25:54.889Z,0.20
2023-01-21T17:28:32.238Z,0.24
2023-01-21T17:31:21.559Z,0.32
2023-01-21T17:34:01.997Z,0.32
2023-01-21T17:36:39.826Z,0.32
2023-01-21T17:39:09.296Z,0.31
2023-01-21T17:41:38.817Z,0.25
2023-01-21T17:44:19.685Z,0.19
2023-01-21T17:46:47.933Z,0.23
2023-01-21T17:49:20.458Z,0.14
2023-01-21T17:51:49.429Z,0.07
2023-01-21T17:54:26.117Z,0.05
2023-01-21T17:57:00.400Z,0.12
2023-01-21T17:59:41.272Z,0.05
2023-01-21T18:02:13.333Z,0.04
2023-01-21T18:04:40.891Z,0.08
2023-01-21T18:07:35.603Z,0.11
2023-01-21T18:10:03.061Z,0.20
2023-01-21T18:12:29.787Z,0.13
2023-01-21T18:14:56.362Z,0.11
2023-01-21T18:17:25.031Z,0.11
2023-01-21T18:19:51.808Z,0.07
2023-01-21T18:22:32.011Z,-0.01
2023-01-21T18:25:00.424Z,0.09
2023-01-21T18:27:27.027Z,0.08
2023-01-21T18:29:54.106Z,0.08
2023-01-21T18:32:20.829Z,0.03
2023-01-21T18:34:47.536Z,0.02
2023-01-21T18:37:17.328Z,-0.06
2023-01-21T18:39:44.035Z,-0.06
2023-01-21T18:42:15.783Z,-0.11
2023-01-21T18:44:43.242Z,0.00
2023-01-21T18:47:15.389Z,-0.05
2023-01-21T18:49:42.381Z,-0.09
2023-01-21T18:52:17.622Z,-0.16
2023-01-21T18:54:44.481Z,-0.15
2023-01-21T18:57:22.622Z,-0.12
2023-01-21T18:59:49.393Z,-0.05
2023-01-21T19:02:18.848Z,-0.10
2023-01-21T19:04:46.799Z,-0.04
2023-01-21T19:07:19.305Z,0.01
2023-01-21T19:09:46.880Z,-0.13
2023-01-21T19:12:16.575Z,-0.10
2023-01-21T19:14:43.355Z,-0.06
2023-01-21T19:17:12.742Z,-0.02
2023-01-21T19:19:39.937Z,-0.07
2023-01-21T19:22:10.615Z,-0.11
2023-01-21T19:24:37.268Z,-0.07
2023-01-21T19:27:03.992Z,-0.01
2023-01-21T19:29:30.763Z,0.04
2023-01-21T19:31:57.329Z,-0.07
2023-01-21T19:34:26.263Z,0.02
2023-01-21T19:36:53.710Z,-0.04
2023-01-21T19:39:24.087Z,-0.05
2023-01-21T19:42:03.413Z,-0.04
2023-01-21T19:44:34.110Z,0.03
2023-01-21T19:47:01.476Z,-0.09
2023-01-21T19:49:28.246Z,-0.08
2023-01-21T19:51:54.863Z,-0.03
2023-01-21T19:54:21.630Z,-0.08
2023-01-21T19:56:48.297Z,0.01
2023-01-21T19:59:16.243Z,-0.04
2023-01-21T20:01:44.463Z,0.05
2023-01-21T20:04:11.296Z,-0.01
2023-01-21T20:06:40.466Z,-0.06
2023-01-21T20:09:11.332Z,0.00
2023-01-21T20:11:38.074Z,0.06
2023-01-21T20:14:04.714Z,0.09
2023-01-21T20:16:31.505Z,0.06
2023-01-21T20:19:02.151Z,-0.06
2023-01-21T20:21:28.949Z,0.06
2023-01-21T20:23:55.539Z,0.04
2023-01-21T20:26:27.009Z,-0.01
2023-01-21T20:28:54.728Z,-0.01
2023-01-21T20:31:21.663Z,-0.03
2023-01-21T20:33:48.549Z,0.03
2023-01-21T20:36:20.035Z,0.07
2023-01-21T20:38:46.768Z,-0.06
2023-01-21T20:41:13.962Z,0.02
2023-01-21T20:43:40.812Z,0.01
2023-01-21T20:46:15.510Z,-0.04
2023-01-21T20:48:44.144Z,0.02
2023-01-21T20:51:11.572Z,0.04
2023-01-21T20:53:38.811Z,-0.02
2023-01-21T20:56:19.611Z,0.09
2023-01-21T20:58:48.077Z,-0.01
2023-01-21T21:01:16.505Z,0.02
2023-01-21T21:03:43.710Z,0.05
2023-01-21T21:06:16.657Z,0.06
2023-01-21T21:08:43.940Z,-0.03
2023-01-21T21:11:11.525Z,-0.01
2023-01-21T21:13:38.260Z,0.03
2023-01-21T21:16:37.577Z,0.05
2023-01-21T21:19:04.404Z,0.03
2023-01-21T21:21:30.982Z,0.04
2023-01-21T21:23:57.795Z,0.03
2023-01-21T21:26:33.362Z,0.04
2023-01-21T21:29:00.065Z,-0.02
2023-01-21T21:31:32.101Z,0.04
2023-01-21T21:33:58.999Z,-0.02
2023-01-21T21:36:25.553Z,0.02
2023-01-21T21:38:55.735Z,0.06
2023-01-21T21:41:43.246Z,0.07
2023-01-21T21:44:10.891Z,0.02
2023-01-21T21:46:57.135Z,-0.01
2023-01-21T21:49:24.185Z,0.11
2023-01-21T21:51:50.795Z,0.02
2023-01-21T21:54:18.646Z,0.15
2023-01-21T21:56:46.199Z,0.15
2023-01-21T21:59:13.308Z,0.11
2023-01-21T22:01:42.002Z,0.05
2023-01-21T22:04:08.712Z,0.12
2023-01-21T22:06:35.358Z,0.17
2023-01-21T22:09:02.097Z,0.18
2023-01-21T22:11:29.397Z,0.14
2023-01-21T22:13:56.535Z,0.19
2023-01-21T22:16:26.462Z,0.15
2023-01-21T22:18:54.218Z,0.14
2023-01-21T22:21:23.580Z,0.16
2023-01-21T22:23:51.063Z,0.18
2023-01-21T22:26:21.276Z,0.11
2023-01-21T22:28:48.591Z,0.04
2023-01-21T22:31:27.623Z,0.09
2023-01-21T22:33:55.367Z,0.17
2023-01-21T22:36:25.501Z,0.13
2023-01-21T22:38:52.610Z,0.20
2023-01-21T22:41:21.741Z,0.11
2023-01-21T22:43:49.902Z,0.11
2023-01-21T22:46:19.840Z,0.10
2023-01-21T22:48:46.962Z,0.18
2023-01-21T22:51:15.888Z,0.04
2023-01-21T22:53:45.891Z,0.09
2023-01-21T22:56:15.554Z,0.07
2023-01-21T22:58:42.620Z,0.16
2023-01-21T23:01:19.865Z,0.19
2023-01-21T23:03:46.421Z,0.19
2023-01-21T23:06:13.286Z,0.09
2023-01-21T23:08:40.015Z,0.07
2023-01-21T23:11:08.219Z,0.02
2023-01-21T23:13:35.570Z,0.15
2023-01-21T23:16:02.426Z,0.23
2023-01-21T23:18:29.537Z,0.13
2023-01-21T23:20:56.817Z,0.14
2023-01-21T23:23:24.858Z,0.12
2023-01-21T23:25:51.644Z,0.08
2023-01-21T23:28:18.369Z,0.09
2023-01-21T23:30:45.061Z,0.15
2023-01-21T23:33:12.219Z,0.12
2023-01-21T23:35:38.974Z,0.14
2023-01-21T23:38:05.576Z,0.17
2023-01-21T23:40:32.317Z,0.09
2023-01-21T23:42:58.932Z,0.20
2023-01-21T23:45:25.622Z,0.13
2023-01-21T23:47:52.238Z,0.05
2023-01-21T23:50:19.026Z,0.12
2023-01-21T23:52:45.746Z,0.16
2023-01-21T23:55:12.979Z,0.10
2023-01-21T23:57:39.697Z,0.11
